Time;durP1;ratioP1;P1;durP2;ratioP2;P2;SDS_P1;SDS_P2;PMS_P1;PMS_P2;Temp;Humidity;BMP_temperature;BMP_pressure;BME280_temperature;BME280_humidity;BME280_pressure;Samples;Min_cycle;Max_cycle;Signal;HPM_P1;HPM_P2
2022/09/17 00:04:02;;;;;;;0.63;0.40;;;;;;;19.88;44.96;101418.34;16149893;19;129851;-66
2022/09/17 00:09:25;;;;;;;1.15;0.30;;;;;;;19.85;45.19;101419.66;16153513;19;129504;-66
2022/09/17 00:14:46;;;;;;;1.10;0.43;;;;;;;19.86;45.15;101424.13;16149527;19;129554;-66
2022/09/17 00:20:09;;;;;;;1.85;0.50;;;;;;;19.85;44.83;101425.22;16148218;19;133028;-67
2022/09/17 00:25:31;;;;;;;1.50;0.60;;;;;;;19.84;44.85;101427.16;16151092;19;129814;-66
2022/09/17 00:30:53;;;;;;;1.45;0.50;;;;;;;19.83;44.58;101422.69;16148219;19;129534;-67
2022/09/17 00:36:16;;;;;;;1.70;0.55;;;;;;;19.83;44.83;101416.28;16145173;19;129575;-66
2022/09/17 00:41:38;;;;;;;1.55;0.60;;;;;;;19.82;44.56;101414.59;16145461;19;129960;-67
2022/09/17 00:47:00;;;;;;;2.30;0.70;;;;;;;19.82;44.55;101420.13;16142161;19;130539;-70
2022/09/17 00:52:29;;;;;;;2.05;0.50;;;;;;;19.83;44.77;101419.06;16132692;19;129742;-69
2022/09/17 00:57:55;;;;;;;1.67;0.50;;;;;;;19.82;44.59;101426.56;16134786;19;129214;-73
2022/09/17 01:03:17;;;;;;;1.30;0.50;;;;;;;19.82;44.82;101428.47;16135402;19;129321;-67
2022/09/17 01:09:00;;;;;;;2.90;0.57;;;;;;;19.82;44.80;101425.69;16139593;19;129502;-67
2022/09/17 01:14:49;;;;;;;1.80;0.50;;;;;;;19.82;44.65;101431.25;16146562;19;130498;-66
2022/09/17 01:20:35;;;;;;;1.73;0.40;;;;;;;19.81;45.04;101440.69;16143451;19;128768;-67
2022/09/17 01:26:25;;;;;;;1.88;0.60;;;;;;;19.80;45.00;101452.88;16145149;19;130009;-67
2022/09/17 01:31:50;;;;;;;1.10;0.52;;;;;;;19.77;44.86;101456.13;16145121;19;129345;-67
2022/09/17 01:37:24;;;;;;;3.73;0.93;;;;;;;19.78;44.71;101455.03;16144312;19;128927;-67
2022/09/17 01:43:02;;;;;;;1.52;0.40;;;;;;;19.77;44.85;101462.50;16145221;19;130569;-67
2022/09/17 01:48:46;;;;;;;3.15;0.75;;;;;;;19.76;44.64;101460.00;16145027;19;129317;-64
2022/09/17 01:54:29;;;;;;;1.60;0.50;;;;;;;19.76;44.92;101463.59;16144651;19;129039;-66
2022/09/17 01:59:58;;;;;;;2.30;0.70;;;;;;;19.74;44.67;101457.47;16144141;19;129300;-67
2022/09/17 02:05:41;;;;;;;1.08;0.43;;;;;;;19.74;44.54;101457.47;16140848;19;129898;-67
2022/09/17 02:11:09;;;;;;;2.65;0.75;;;;;;;19.74;44.67;101468.56;16139132;19;129664;-66
2022/09/17 02:16:34;;;;;;;3.53;0.30;;;;;;;19.74;44.64;101465.78;16140727;19;129538;-66
2022/09/17 02:22:07;;;;;;;1.90;0.52;;;;;;;19.73;44.84;101460.47;16139963;19;129009;-66
2022/09/17 02:27:34;;;;;;;0.93;0.40;;;;;;;19.73;44.54;101461.31;16138885;19;130703;-66
2022/09/17 02:32:56;;;;;;;1.80;0.60;;;;;;;19.73;45.04;101463.25;16139686;19;130095;-66
2022/09/17 02:38:25;;;;;;;1.60;0.70;;;;;;;19.74;44.90;101473.25;16138816;19;129570;-66
2022/09/17 02:43:50;;;;;;;1.88;0.60;;;;;;;19.73;44.75;101466.00;16125044;19;129820;-66
2022/09/17 02:49:27;;;;;;;;;;;;;;;19.68;44.60;101464.81;16126252;19;129539;-67
2022/09/17 02:55:09;;;;;;;0.65;0.40;;;;;;;19.72;44.77;101467.97;16125491;19;129982;-67
2022/09/17 03:00:31;;;;;;;1.38;0.50;;;;;;;19.68;44.61;101464.81;16123821;19;129361;-66
2022/09/17 03:05:54;;;;;;;1.33;0.50;;;;;;;19.68;45.11;101463.97;16136309;19;134741;-66
2022/09/17 03:11:16;;;;;;;2.42;0.60;;;;;;;19.67;45.11;101457.59;16137027;19;129703;-66
2022/09/17 03:16:38;;;;;;;1.30;0.50;;;;;;;19.68;45.13;101456.50;16136863;19;129265;-66
2022/09/17 03:22:00;;;;;;;2.20;0.60;;;;;;;19.66;44.69;101455.88;16138072;19;129744;-66
2022/09/17 03:27:21;;;;;;;1.40;0.52;;;;;;;19.66;44.85;101450.34;16136246;19;129429;-66
2022/09/17 03:32:43;;;;;;;1.75;0.55;;;;;;;19.66;44.93;101447.56;16136854;19;129953;-66
2022/09/17 03:38:05;;;;;;;1.42;0.63;;;;;;;19.66;45.09;101449.47;16137065;19;129608;-67
2022/09/17 03:43:29;;;;;;;1.80;0.40;;;;;;;19.65;45.07;101445.00;16136894;19;130291;-67
2022/09/17 03:48:51;;;;;;;1.38;0.40;;;;;;;19.65;45.04;101447.78;16136674;19;130295;-66
2022/09/17 03:54:13;;;;;;;0.70;0.30;;;;;;;19.63;44.74;101453.59;16134765;19;129111;-66
2022/09/17 03:59:34;;;;;;;1.02;0.50;;;;;;;19.63;44.96;101456.38;16135814;19;129431;-66
2022/09/17 04:04:56;;;;;;;1.95;0.70;;;;;;;19.63;44.73;101467.47;16132766;19;128788;-67
2022/09/17 04:10:18;;;;;;;3.10;0.60;;;;;;;19.61;45.00;101458.53;16133353;19;130738;-66
2022/09/17 04:15:40;;;;;;;2.00;0.52;;;;;;;19.61;44.86;101461.31;16131993;19;129516;-66
2022/09/17 04:21:02;;;;;;;1.33;0.60;;;;;;;19.61;45.00;101466.84;16131769;19;129121;-66
2022/09/17 04:26:24;;;;;;;1.02;0.47;;;;;;;19.61;45.14;101472.41;16133579;19;129336;-66
2022/09/17 04:31:46;;;;;;;0.77;0.38;;;;;;;19.61;44.98;101463.25;16130311;19;129802;-67
2022/09/17 04:37:08;;;;;;;0.98;0.38;;;;;;;19.62;45.01;101467.72;16128971;19;129807;-66
2022/09/17 04:42:29;;;;;;;0.80;0.38;;;;;;;19.60;45.10;101467.94;16132468;19;129862;-66
2022/09/17 04:47:51;;;;;;;0.88;0.38;;;;;;;19.60;44.96;101469.88;16132023;19;129083;-66
2022/09/17 04:53:13;;;;;;;1.48;0.40;;;;;;;19.58;45.06;101460.94;16130775;19;130669;-67
2022/09/17 04:58:34;;;;;;;2.88;0.30;;;;;;;19.58;44.83;101472.88;16128514;19;129409;-67
2022/09/17 05:03:56;;;;;;;2.13;0.50;;;;;;;19.57;44.76;101473.97;16128546;19;129717;-66
2022/09/17 05:09:18;;;;;;;1.65;0.50;;;;;;;19.58;45.00;101474.81;16130169;19;129898;-66
2022/09/17 05:14:40;;;;;;;1.45;0.47;;;;;;;19.57;45.00;101476.75;16127508;19;129773;-67
2022/09/17 05:20:02;;;;;;;1.45;0.50;;;;;;;19.56;44.85;101486.19;16129675;19;129811;-67
2022/09/17 05:25:24;;;;;;;1.85;0.57;;;;;;;19.56;44.89;101486.19;16124736;19;129475;-66
2022/09/17 05:30:45;;;;;;;1.10;0.40;;;;;;;19.56;44.97;101494.50;16127336;19;129823;-66
2022/09/17 05:36:07;;;;;;;1.30;0.38;;;;;;;19.56;45.14;101493.63;16129355;19;129734;-66
2022/09/17 05:41:29;;;;;;;1.45;0.60;;;;;;;19.55;45.08;101503.91;16131636;19;129847;-66
2022/09/17 05:46:52;;;;;;;0.85;0.35;;;;;;;19.55;45.07;101506.69;16133004;19;129872;-66
2022/09/17 05:52:15;;;;;;;1.92;0.57;;;;;;;19.54;44.85;101510.53;16129170;19;129531;-67
2022/09/17 05:57:36;;;;;;;1.60;0.47;;;;;;;19.54;44.76;101518.88;16128246;19;129634;-67
2022/09/17 06:02:58;;;;;;;1.25;0.40;;;;;;;19.55;45.06;101519.69;16126274;19;129569;-66
2022/09/17 06:08:21;;;;;;;1.50;0.50;;;;;;;19.55;44.97;101530.81;16125437;19;129447;-67
2022/09/17 06:13:43;;;;;;;0.88;0.35;;;;;;;19.54;44.77;101529.97;16126619;19;129128;-67
2022/09/17 06:19:04;;;;;;;1.33;0.60;;;;;;;19.54;45.25;101529.97;16125274;19;130431;-66
2022/09/17 06:24:26;;;;;;;0.88;0.43;;;;;;;19.53;45.17;101529.09;16126528;19;128944;-66
2022/09/17 06:29:48;;;;;;;1.48;0.45;;;;;;;19.55;45.04;101542.75;16126514;19;129487;-66
2022/09/17 06:35:10;;;;;;;1.27;0.50;;;;;;;19.58;44.81;101536.72;16124882;19;129618;-67
2022/09/17 06:40:31;;;;;;;1.17;0.50;;;;;;;19.62;45.00;101531.56;16136626;19;129427;-67
2022/09/17 06:45:56;;;;;;;0.65;0.35;;;;;;;19.73;45.01;101529.88;16143056;19;133025;-66
2022/09/17 06:51:17;;;;;;;0.73;0.30;;;;;;;19.81;44.73;101529.53;16140179;19;130048;-66
2022/09/17 06:56:39;;;;;;;1.15;0.38;;;;;;;19.88;44.79;101527.47;16139783;19;129436;-67
2022/09/17 07:02:01;;;;;;;2.05;0.50;;;;;;;19.94;44.66;101534.84;16141909;19;129687;-66
2022/09/17 07:07:23;;;;;;;1.00;0.30;;;;;;;19.99;44.35;101543.31;16139927;19;129069;-67
2022/09/17 07:12:44;;;;;;;1.50;0.40;;;;;;;19.97;44.87;101551.03;16139303;19;129427;-66
2022/09/17 07:18:10;;;;;;;3.10;0.50;;;;;;;19.96;44.60;101559.59;16138971;19;129603;-67
2022/09/17 07:23:34;;;;;;;1.33;0.38;;;;;;;19.97;44.58;101570.47;16139801;19;129446;-67
2022/09/17 07:28:56;;;;;;;1.45;0.50;;;;;;;20.01;44.57;101561.69;16140625;19;131082;-67
2022/09/17 07:34:17;;;;;;;1.08;0.50;;;;;;;20.10;44.48;101563.00;16139714;19;129016;-67
2022/09/17 07:39:40;;;;;;;1.30;0.50;;;;;;;20.23;44.52;101560.00;16141104;19;130625;-67
2022/09/17 07:45:01;;;;;;;1.05;0.30;;;;;;;20.29;44.02;101561.81;16138304;19;129518;-68
2022/09/17 07:50:23;;;;;;;1.55;0.60;;;;;;;20.35;43.88;101561.94;16135841;19;129747;-67
2022/09/17 07:55:56;;;;;;;1.30;0.40;;;;;;;21.97;41.72;101560.13;16139166;19;129130;-68
2022/09/17 08:01:20;;;;;;;1.30;0.47;;;;;;;22.05;41.37;101567.22;16137873;19;129379;-74
2022/09/17 08:06:41;;;;;;;1.27;0.40;;;;;;;21.82;41.15;101560.72;16136434;19;129021;-72
2022/09/17 08:12:04;;;;;;;2.83;0.50;;;;;;;21.54;41.78;101556.91;16138100;19;130600;-73
2022/09/17 08:17:25;;;;;;;0.75;0.30;;;;;;;21.27;42.33;101568.63;16133180;19;129148;-68
2022/09/17 08:22:47;;;;;;;0.95;0.30;;;;;;;21.08;42.13;101559.63;16133242;19;129426;-67
2022/09/17 08:28:10;;;;;;;1.45;0.40;;;;;;;20.96;42.67;101567.16;16132458;19;129376;-66
2022/09/17 08:33:34;;;;;;;2.05;0.47;;;;;;;20.87;43.00;101563.91;16133310;19;129727;-66
2022/09/17 08:38:57;;;;;;;0.95;0.40;;;;;;;20.83;42.99;101569.13;16131703;19;129481;-66
2022/09/17 08:44:26;;;;;;;1.40;0.45;;;;;;;20.81;42.83;101568.53;16128409;19;129982;-66
2022/09/17 08:49:52;;;;;;;0.95;0.40;;;;;;;20.80;42.73;101569.63;16130998;19;129540;-67
2022/09/17 08:55:24;;;;;;;1.63;0.43;;;;;;;20.75;42.98;101572.28;16127064;19;129827;-67
2022/09/17 09:00:54;;;;;;;1.58;0.40;;;;;;;20.71;42.76;101571.91;16129113;19;129353;-67
2022/09/17 09:06:18;;;;;;;1.58;0.40;;;;;;;20.65;42.76;101578.44;16128702;19;131062;-66
2022/09/17 09:11:42;;;;;;;1.65;0.47;;;;;;;20.57;42.94;101588.00;16128291;19;129712;-66
2022/09/17 09:17:08;;;;;;;1.38;0.43;;;;;;;20.55;42.99;101590.19;16129464;19;129507;-60
2022/09/17 09:22:44;;;;;;;1.92;0.43;;;;;;;20.52;43.01;101590.69;16131721;19;129573;-66
2022/09/17 09:28:23;;;;;;;2.17;0.60;;;;;;;20.48;42.61;101585.84;16130260;19;129683;-67
2022/09/17 09:33:46;;;;;;;1.25;0.47;;;;;;;20.43;43.08;101589.38;16128740;19;129757;-66
2022/09/17 09:39:34;;;;;;;2.95;0.68;;;;;;;20.42;42.55;101590.44;16128035;19;132305;-66
2022/09/17 09:45:15;;;;;;;1.85;0.50;;;;;;;20.38;42.46;101592.00;16128182;19;129517;-66
2022/09/17 09:50:40;;;;;;;4.50;0.85;;;;;;;20.32;42.63;101592.97;16125576;19;129526;-66
2022/09/17 09:56:42;;;;;;;2.90;0.70;;;;;;;20.29;42.67;101592.38;16125339;19;129810;-66
2022/09/17 10:02:04;;;;;;;4.38;0.65;;;;;;;20.25;42.77;101596.72;16125035;19;129361;-66
2022/09/17 10:07:27;;;;;;;3.08;0.70;;;;;;;20.21;42.46;101600.22;16124944;19;129225;-66
2022/09/17 10:13:04;;;;;;;1.63;0.50;;;;;;;20.21;42.84;101595.50;16131397;19;133862;-66
2022/09/17 10:18:26;;;;;;;3.47;1.10;;;;;;;20.22;42.88;101601.94;16140123;19;130684;-66
2022/09/17 10:23:49;;;;;;;2.17;0.73;;;;;;;20.21;42.43;101598.28;16140425;19;129632;-66
2022/09/17 10:29:15;;;;;;;2.15;0.60;;;;;;;20.21;42.38;101600.22;16140683;19;129646;-66
2022/09/17 10:34:37;;;;;;;2.22;0.57;;;;;;;20.18;42.70;101596.00;16141037;19;129350;-66
2022/09/17 10:39:59;;;;;;;2.63;0.40;;;;;;;20.16;42.64;101598.19;16138468;19;129422;-66
2022/09/17 10:45:29;;;;;;;2.17;0.60;;;;;;;20.13;42.66;101598.66;16136301;19;129374;-66
2022/09/17 10:50:54;;;;;;;1.83;0.55;;;;;;;20.10;42.56;101600.00;16139318;19;129743;-66
2022/09/17 10:56:25;;;;;;;2.87;0.77;;;;;;;20.10;42.32;101601.91;16140148;19;129660;-67
2022/09/17 11:01:57;;;;;;;2.38;0.55;;;;;;;20.11;42.36;101604.47;16138818;19;129421;-66
2022/09/17 11:07:48;;;;;;;1.20;0.40;;;;;;;20.12;42.35;101605.28;16137097;19;129987;-66
2022/09/17 11:13:15;;;;;;;1.42;0.35;;;;;;;20.11;42.01;101600.81;16136835;19;129460;-66
2022/09/17 11:19:06;;;;;;;2.05;0.40;;;;;;;20.10;42.14;101588.00;16136447;19;130101;-66
2022/09/17 11:24:45;;;;;;;2.10;0.45;;;;;;;20.06;42.11;101598.75;16131535;19;129151;-66
2022/09/17 11:30:23;;;;;;;1.80;0.50;;;;;;;20.03;42.44;101603.97;16136127;19;129368;-66
2022/09/17 11:35:51;;;;;;;1.52;0.40;;;;;;;19.98;42.05;101622.16;16136769;19;130361;-66
2022/09/17 11:41:24;;;;;;;1.95;0.45;;;;;;;19.93;42.43;101626.72;16137889;19;129274;-66
2022/09/17 11:47:11;;;;;;;1.67;0.45;;;;;;;19.90;42.34;101591.97;16137416;19;129411;-66
2022/09/17 11:52:41;;;;;;;1.48;0.50;;;;;;;19.87;42.32;101586.88;16138852;19;129550;-66
2022/09/17 11:58:14;;;;;;;1.65;0.50;;;;;;;19.87;42.27;101586.88;16135467;19;129504;-66
2022/09/17 12:03:42;;;;;;;2.47;0.60;;;;;;;19.88;42.56;101577.47;16138059;19;129455;-66
2022/09/17 12:09:18;;;;;;;1.42;0.40;;;;;;;19.90;42.52;101566.97;16134619;19;129409;-64
2022/09/17 12:14:43;;;;;;;;;;;;;;;19.86;42.16;101565.75;16134467;19;129166;-65
2022/09/17 12:20:21;;;;;;;1.88;0.50;;;;;;;19.90;42.49;101569.75;16132969;19;129624;-66
2022/09/17 12:25:54;;;;;;;1.67;0.40;;;;;;;19.92;42.35;101563.94;16133862;19;129128;-66
2022/09/17 12:32:02;;;;;;;1.80;0.60;;;;;;;19.91;42.47;101563.09;16132689;19;129329;-65
2022/09/17 12:37:44;;;;;;;3.67;0.88;;;;;;;19.91;42.19;101548.34;16128864;19;129480;-66
2022/09/17 12:43:27;;;;;;;2.28;0.50;;;;;;;19.91;42.19;101546.44;16132672;19;129426;-65
2022/09/17 12:48:58;;;;;;;1.67;0.57;;;;;;;19.91;42.49;101542.81;16133559;19;129634;-66
2022/09/17 12:54:30;;;;;;;1.65;0.50;;;;;;;19.90;42.64;101541.09;16130468;19;129576;-66
2022/09/17 13:00:00;;;;;;;2.50;0.70;;;;;;;19.90;42.18;101539.19;16130818;19;129581;-65
2022/09/17 13:05:53;;;;;;;3.78;0.77;;;;;;;19.89;42.38;101553.31;16132486;19;129509;-66
2022/09/17 13:11:30;;;;;;;4.18;0.57;;;;;;;19.86;42.16;101595.44;16130044;19;129188;-66
2022/09/17 13:17:21;;;;;;;2.83;0.50;;;;;;;19.82;42.32;101567.28;16131727;19;129144;-66
2022/09/17 13:22:48;;;;;;;3.42;0.77;;;;;;;19.79;42.50;101565.03;16130173;19;129145;-66
2022/09/17 13:28:10;;;;;;;2.58;0.47;;;;;;;19.79;42.57;101565.03;16130732;19;129437;-66
2022/09/17 13:33:50;;;;;;;2.30;0.63;;;;;;;19.82;41.97;101559.81;16130738;19;129304;-66
2022/09/17 13:39:34;;;;;;;2.72;0.70;;;;;;;19.81;42.03;101549.81;16129448;19;129629;-66
2022/09/17 13:45:05;;;;;;;4.03;0.70;;;;;;;19.79;42.34;101548.34;16128960;19;129743;-66
2022/09/17 13:50:35;;;;;;;3.37;1.00;;;;;;;19.79;42.14;101556.69;16127798;19;129720;-66
2022/09/17 13:56:00;;;;;;;3.72;0.88;;;;;;;19.80;42.60;101555.59;16128015;19;129281;-66
2022/09/17 14:01:56;;;;;;;5.63;1.00;;;;;;;19.78;42.49;101591.09;16126094;19;129670;-66
2022/09/17 14:07:20;;;;;;;5.53;0.75;;;;;;;19.73;42.25;101593.72;16125850;19;129489;-66
2022/09/17 14:12:59;;;;;;;3.97;0.80;;;;;;;19.69;41.93;101571.13;16127869;19;130443;-66
2022/09/17 14:18:42;;;;;;;2.90;0.98;;;;;;;19.67;42.39;101571.38;16126660;19;129732;-66
2022/09/17 14:24:20;;;;;;;4.30;0.63;;;;;;;19.69;42.17;101576.69;16126084;19;128887;-67
2022/09/17 14:29:53;;;;;;;4.35;0.80;;;;;;;19.68;42.57;101575.88;16125095;19;130202;-66
2022/09/17 14:35:16;;;;;;;6.03;1.38;;;;;;;19.69;42.41;101574.75;16122204;19;128932;-65
2022/09/17 14:40:46;;;;;;;3.53;0.80;;;;;;;19.73;42.39;101577.91;16123139;19;129526;-66
2022/09/17 14:46:21;;;;;;;3.15;0.80;;;;;;;19.75;42.38;101572.97;16123970;19;129849;-66
2022/09/17 14:51:43;;;;;;;3.10;0.90;;;;;;;19.74;42.43;101576.84;16121560;19;129606;-66
2022/09/17 14:57:07;;;;;;;4.07;0.77;;;;;;;19.75;42.47;101577.66;16124674;19;129472;-65
2022/09/17 15:02:45;;;;;;;3.72;1.00;;;;;;;19.74;42.70;101585.16;16140973;19;129322;-67
2022/09/17 15:08:14;;;;;;;3.33;0.73;;;;;;;19.74;42.30;101587.09;16139600;19;130198;-66
2022/09/17 15:13:44;;;;;;;5.68;0.98;;;;;;;19.71;42.51;101582.00;16142526;19;129613;-66
2022/09/17 15:19:13;;;;;;;2.30;0.70;;;;;;;19.69;42.29;101574.75;16138488;19;129729;-66
2022/09/17 15:24:57;;;;;;;2.90;0.85;;;;;;;19.69;42.57;101571.13;16138245;19;129509;-66
2022/09/17 15:30:22;;;;;;;2.90;0.70;;;;;;;19.66;42.29;101572.47;16136819;19;129085;-66
2022/09/17 15:36:08;;;;;;;4.10;0.90;;;;;;;19.68;42.22;101573.09;16140591;19;129697;-66
2022/09/17 15:41:34;;;;;;;3.03;0.90;;;;;;;19.66;42.56;101566.06;16137635;19;129707;-65
2022/09/17 15:47:36;;;;;;;3.22;1.00;;;;;;;19.66;42.07;101572.47;16137114;19;129298;-66
2022/09/17 15:53:07;;;;;;;6.05;1.08;;;;;;;19.68;42.55;101575.00;16136203;19;130031;-66
2022/09/17 15:58:32;;;;;;;4.35;0.82;;;;;;;19.65;42.38;101584.66;16138161;19;132683;-66
2022/09/17 16:04:22;;;;;;;3.53;0.97;;;;;;;19.67;42.54;101585.28;16136841;19;130899;-66
2022/09/17 16:09:49;;;;;;;2.88;0.77;;;;;;;19.65;42.54;101581.88;16135512;19;129693;-65
2022/09/17 16:15:12;;;;;;;4.82;1.02;;;;;;;19.65;42.52;101592.13;16134863;19;129445;-65
2022/09/17 16:20:33;;;;;;;2.47;0.77;;;;;;;19.65;42.59;101592.13;16136757;19;133086;-66
2022/09/17 16:25:56;;;;;;;2.38;0.60;;;;;;;19.63;42.15;101595.16;16136031;19;129515;-65
2022/09/17 16:31:19;;;;;;;3.88;1.02;;;;;;;19.63;42.14;101591.53;16133091;19;129249;-65
2022/09/17 16:36:41;;;;;;;3.83;0.85;;;;;;;19.63;42.63;101610.97;16135860;19;129795;-66
2022/09/17 16:42:03;;;;;;;2.85;0.70;;;;;;;19.63;42.60;101610.97;16131604;19;129424;-65
2022/09/17 16:47:24;;;;;;;3.65;0.70;;;;;;;19.60;42.28;101603.94;16128141;19;129183;-65
2022/09/17 16:52:46;;;;;;;3.17;0.73;;;;;;;19.61;42.18;101599.25;16132267;19;129576;-66
2022/09/17 16:58:08;;;;;;;4.20;0.82;;;;;;;19.58;42.18;101603.31;16131109;19;129588;-66
2022/09/17 17:03:29;;;;;;;2.90;0.65;;;;;;;19.57;42.43;101615.50;16131089;19;129177;-66
2022/09/17 17:08:51;;;;;;;2.20;0.55;;;;;;;19.56;42.18;101622.16;16128919;19;129680;-66
2022/09/17 17:14:13;;;;;;;3.60;0.88;;;;;;;19.56;42.57;101622.16;16129556;19;129801;-66
2022/09/17 17:19:35;;;;;;;3.58;0.73;;;;;;;19.55;42.57;101626.03;16129567;19;129525;-64
2022/09/17 17:24:57;;;;;;;4.05;0.88;;;;;;;19.55;42.20;101625.16;16127342;19;129854;-66
2022/09/17 17:30:19;;;;;;;6.20;0.75;;;;;;;19.54;42.43;101632.66;16132024;19;129858;-65
2022/09/17 17:35:40;;;;;;;1.95;0.70;;;;;;;19.53;42.69;101634.56;16128738;19;129355;-65
2022/09/17 17:41:08;;;;;;;2.63;0.80;;;;;;;19.53;42.59;101629.00;16127262;19;129313;-65
2022/09/17 17:46:29;;;;;;;3.28;0.65;;;;;;;19.53;42.69;101639.28;16129333;19;129408;-66
2022/09/17 17:51:52;;;;;;;3.08;0.82;;;;;;;19.52;42.86;101643.97;16128256;19;128809;-65
2022/09/17 17:57:14;;;;;;;3.80;0.77;;;;;;;19.52;42.34;101643.97;16127923;19;130644;-66
2022/09/17 18:02:35;;;;;;;3.00;0.90;;;;;;;19.51;42.31;101658.09;16125869;19;129212;-66
2022/09/17 18:07:57;;;;;;;3.22;0.90;;;;;;;19.51;42.73;101644.22;16127343;19;129119;-66
2022/09/17 18:13:19;;;;;;;4.10;1.00;;;;;;;19.50;42.42;101653.63;16127040;19;129717;-66
2022/09/17 18:18:43;;;;;;;4.45;0.85;;;;;;;19.49;42.74;101663.03;16126929;19;129558;-66
2022/09/17 18:24:05;;;;;;;3.13;0.75;;;;;;;19.48;42.45;101675.19;16125352;19;129149;-66
2022/09/17 18:29:27;;;;;;;5.43;0.82;;;;;;;19.46;42.69;101677.34;16128589;19;129503;-66
2022/09/17 18:34:49;;;;;;;2.95;0.80;;;;;;;19.44;42.57;101685.94;16136173;19;129727;-66
2022/09/17 18:40:12;;;;;;;3.53;0.65;;;;;;;19.45;42.87;101692.31;16140950;19;129586;-66
2022/09/17 18:45:34;;;;;;;4.05;0.90;;;;;;;19.45;42.40;101720.94;16141261;19;130278;-65
2022/09/17 18:50:58;;;;;;;2.05;0.60;;;;;;;19.46;42.34;101707.88;16141381;19;129630;-66
2022/09/17 18:56:31;;;;;;;3.33;1.00;;;;;;;19.44;42.64;101708.13;16138716;19;129195;-65
2022/09/17 19:01:53;;;;;;;3.35;0.90;;;;;;;19.44;42.84;101712.84;16139721;19;129476;-66
2022/09/17 19:07:14;;;;;;;3.30;0.93;;;;;;;19.44;42.90;101705.34;16138445;19;129905;-66
2022/09/17 19:12:36;;;;;;;2.47;0.70;;;;;;;19.43;42.75;101695.34;16140141;19;129382;-67
2022/09/17 19:17:58;;;;;;;1.70;0.60;;;;;;;19.44;43.02;101701.75;16141157;19;129113;-70
2022/09/17 19:23:20;;;;;;;3.42;0.77;;;;;;;19.43;42.79;101711.16;16140088;19;129593;-70
2022/09/17 19:28:42;;;;;;;2.17;0.73;;;;;;;19.44;42.89;101713.69;16142825;19;129383;-70
2022/09/17 19:34:03;;;;;;;4.10;0.90;;;;;;;19.44;43.04;101710.06;16137983;19;130735;-70
2022/09/17 19:39:25;;;;;;;2.72;0.70;;;;;;;19.43;42.96;101700.06;16139159;19;130034;-66
2022/09/17 19:44:47;;;;;;;2.35;0.57;;;;;;;19.43;42.92;101711.16;16135585;19;129336;-67
2022/09/17 19:50:09;;;;;;;1.73;0.75;;;;;;;19.42;43.22;101715.84;16135951;19;129442;-66
2022/09/17 19:55:30;;;;;;;2.20;0.77;;;;;;;19.42;42.94;101720.56;16136413;19;129704;-66
2022/09/17 20:00:57;;;;;;;2.03;0.60;;;;;;;19.43;42.77;101716.69;16137801;19;129788;-66
2022/09/17 20:06:22;;;;;;;3.33;0.77;;;;;;;19.42;42.94;101712.22;16136418;19;129586;-66
2022/09/17 20:11:44;;;;;;;2.45;0.80;;;;;;;19.40;43.06;101712.44;16135903;19;129593;-66
2022/09/17 20:17:06;;;;;;;3.30;0.70;;;;;;;19.41;43.12;101718.84;16134767;19;129246;-66
2022/09/17 20:22:28;;;;;;;2.15;0.73;;;;;;;19.40;43.29;101706.06;16137466;19;129247;-66
2022/09/17 20:27:49;;;;;;;2.25;0.63;;;;;;;19.40;43.22;101712.44;16135302;19;129610;-66
2022/09/17 20:33:11;;;;;;;1.40;0.52;;;;;;;19.40;42.99;101706.06;16133958;19;130189;-65
2022/09/17 20:38:33;;;;;;;2.53;0.57;;;;;;;19.38;42.99;101704.34;16136185;19;129772;-66
2022/09/17 20:44:16;;;;;;;1.15;0.50;;;;;;;19.38;43.02;101704.34;16133968;19;129953;-66
2022/09/17 20:49:38;;;;;;;0.95;0.55;;;;;;;19.38;43.28;101704.34;16133602;19;130741;-66
2022/09/17 20:55:00;;;;;;;1.40;0.60;;;;;;;19.37;43.40;101702.66;16134864;19;129259;-66
2022/09/17 21:00:25;;;;;;;2.05;0.65;;;;;;;19.37;43.31;101696.28;16131568;19;130053;-66
2022/09/17 21:05:47;;;;;;;2.20;0.80;;;;;;;19.36;43.40;101700.97;16133024;19;130484;-66
2022/09/17 21:11:09;;;;;;;1.60;0.50;;;;;;;19.36;43.31;101700.97;16133942;19;129666;-65
2022/09/17 21:16:30;;;;;;;1.10;0.43;;;;;;;19.36;43.43;101697.34;16133355;19;129417;-66
2022/09/17 21:21:53;;;;;;;1.58;0.52;;;;;;;19.35;43.38;101707.59;16132531;19;129489;-66
2022/09/17 21:27:15;;;;;;;1.48;0.65;;;;;;;19.35;43.22;101710.38;16127777;19;129705;-65
2022/09/17 21:32:37;;;;;;;2.58;0.90;;;;;;;19.34;43.33;101708.66;16128619;19;130015;-66
2022/09/17 21:37:58;;;;;;;2.47;0.50;;;;;;;19.34;43.11;101703.13;16128926;19;130821;-66
2022/09/17 21:43:20;;;;;;;1.83;0.55;;;;;;;19.33;43.47;101712.53;16127241;19;129453;-66
2022/09/17 21:48:50;;;;;;;1.35;0.50;;;;;;;19.33;43.26;101701.44;16128255;19;129327;-66
2022/09/17 21:54:15;;;;;;;1.83;0.43;;;;;;;19.33;43.24;101704.19;16127706;19;129759;-66
2022/09/17 21:59:37;;;;;;;2.80;0.70;;;;;;;19.32;43.28;101710.81;16130241;19;130027;-65
2022/09/17 22:04:59;;;;;;;1.13;0.40;;;;;;;19.32;43.52;101713.59;16127443;19;129054;-65
2022/09/17 22:10:20;;;;;;;1.10;0.40;;;;;;;19.31;43.69;101703.59;16148841;19;129359;-66
2022/09/17 22:15:42;;;;;;;1.67;0.70;;;;;;;19.31;43.45;101709.16;16159040;19;129326;-65
2022/09/17 22:21:15;;;;;;;2.20;0.70;;;;;;;19.32;43.46;101705.28;16160900;19;129727;-66
2022/09/17 22:26:42;;;;;;;2.17;0.70;;;;;;;19.30;43.79;101707.47;16159692;19;130036;-65
2022/09/17 22:32:04;;;;;;;1.10;0.35;;;;;;;19.30;43.36;101712.16;16157525;19;129431;-66
2022/09/17 22:37:27;;;;;;;1.35;0.40;;;;;;;19.29;43.37;101700.22;16156638;19;129350;-66
2022/09/17 22:42:49;;;;;;;0.90;0.50;;;;;;;19.29;43.67;101700.22;16155431;19;130456;-65
2022/09/17 22:48:10;;;;;;;1.05;0.40;;;;;;;19.28;43.72;101706.84;16157982;19;129316;-65
2022/09/17 22:53:33;;;;;;;3.08;0.75;;;;;;;19.29;43.60;101700.22;16158379;19;129944;-65
2022/09/17 22:58:56;;;;;;;1.58;0.60;;;;;;;19.28;43.76;101698.53;16155610;19;130809;-66
2022/09/17 23:04:17;;;;;;;0.82;0.40;;;;;;;19.28;43.64;101698.53;16155004;19;129600;-66
2022/09/17 23:09:39;;;;;;;2.15;0.57;;;;;;;19.28;43.76;101690.19;16156050;19;129501;-66
2022/09/17 23:15:01;;;;;;;0.85;0.50;;;;;;;19.27;43.93;101696.81;16156540;19;129434;-65
2022/09/17 23:20:22;;;;;;;2.20;0.60;;;;;;;19.27;43.50;101680.19;16141030;19;128906;-65
2022/09/17 23:25:44;;;;;;;1.00;0.40;;;;;;;19.27;43.82;101693.19;16138219;19;129430;-65
2022/09/17 23:31:20;;;;;;;0.90;0.40;;;;;;;19.28;43.91;101689.31;16136926;19;129687;-65
2022/09/17 23:36:42;;;;;;;1.30;0.50;;;;;;;19.26;43.65;101681.25;16135519;19;129770;-65
2022/09/17 23:42:04;;;;;;;0.52;0.32;;;;;;;19.24;43.51;101672.31;16138481;19;129269;-64
2022/09/17 23:47:26;;;;;;;1.33;0.50;;;;;;;19.24;43.75;101675.09;16138621;19;129770;-65
2022/09/17 23:52:48;;;;;;;0.57;0.30;;;;;;;19.24;43.80;101677.84;16139905;19;129553;-65
2022/09/17 23:58:09;;;;;;;1.38;0.50;;;;;;;19.23;43.61;101690.03;16135584;19;129681;-65
